sensor_id;sensor_type;location;lat;lon;timestamp;P1;durP1;ratioP1;P2;durP2;ratioP2
75667;SDS011;64266;48.798;44.756;2023-07-08T00:00:57;6.53;;;2.40;;
75667;SDS011;64266;48.798;44.756;2023-07-08T00:06:00;6.00;;;2.88;;
75667;SDS011;64266;48.798;44.756;2023-07-08T00:11:11;7.68;;;2.83;;
75667;SDS011;64266;48.798;44.756;2023-07-08T00:16:16;8.95;;;3.97;;
75667;SDS011;64266;48.798;44.756;2023-07-08T00:21:21;5.88;;;3.50;;
75667;SDS011;64266;48.798;44.756;2023-07-08T00:26:30;7.63;;;3.20;;
75667;SDS011;64266;48.798;44.756;2023-07-08T00:31:34;8.40;;;3.40;;
75667;SDS011;64266;48.798;44.756;2023-07-08T00:36:38;10.32;;;3.58;;
75667;SDS011;64266;48.798;44.756;2023-07-08T00:41:40;7.30;;;3.50;;
75667;SDS011;64266;48.798;44.756;2023-07-08T00:46:52;7.05;;;2.80;;
75667;SDS011;64266;48.798;44.756;2023-07-08T00:52:18;8.35;;;3.20;;
75667;SDS011;64266;48.798;44.756;2023-07-08T00:57:23;6.18;;;2.92;;
75667;SDS011;64266;48.798;44.756;2023-07-08T01:02:28;7.60;;;3.38;;
75667;SDS011;64266;48.798;44.756;2023-07-08T01:07:34;9.45;;;3.35;;
75667;SDS011;64266;48.798;44.756;2023-07-08T01:12:40;10.65;;;3.40;;
75667;SDS011;64266;48.798;44.756;2023-07-08T01:17:48;8.80;;;3.40;;
75667;SDS011;64266;48.798;44.756;2023-07-08T01:22:56;9.07;;;3.72;;
75667;SDS011;64266;48.798;44.756;2023-07-08T01:27:58;11.75;;;3.33;;
75667;SDS011;64266;48.798;44.756;2023-07-08T01:33:03;10.43;;;3.55;;
75667;SDS011;64266;48.798;44.756;2023-07-08T01:38:10;6.97;;;3.35;;
75667;SDS011;64266;48.798;44.756;2023-07-08T01:43:16;10.80;;;4.55;;
75667;SDS011;64266;48.798;44.756;2023-07-08T01:48:22;8.65;;;4.28;;
75667;SDS011;64266;48.798;44.756;2023-07-08T01:53:30;9.80;;;4.65;;
75667;SDS011;64266;48.798;44.756;2023-07-08T01:58:35;11.55;;;4.70;;
75667;SDS011;64266;48.798;44.756;2023-07-08T02:03:38;11.43;;;4.72;;
75667;SDS011;64266;48.798;44.756;2023-07-08T02:08:45;9.55;;;4.43;;
75667;SDS011;64266;48.798;44.756;2023-07-08T02:13:48;16.25;;;4.45;;
75667;SDS011;64266;48.798;44.756;2023-07-08T02:18:51;9.02;;;4.00;;
75667;SDS011;64266;48.798;44.756;2023-07-08T02:23:54;17.92;;;4.85;;
75667;SDS011;64266;48.798;44.756;2023-07-08T02:28:57;19.77;;;6.28;;
75667;SDS011;64266;48.798;44.756;2023-07-08T02:34:01;25.30;;;7.60;;
75667;SDS011;64266;48.798;44.756;2023-07-08T02:39:04;17.73;;;7.28;;
75667;SDS011;64266;48.798;44.756;2023-07-08T02:44:08;13.23;;;6.53;;
75667;SDS011;64266;48.798;44.756;2023-07-08T02:49:10;13.98;;;5.72;;
75667;SDS011;64266;48.798;44.756;2023-07-08T02:54:14;14.63;;;5.15;;
75667;SDS011;64266;48.798;44.756;2023-07-08T02:59:17;10.40;;;5.47;;
75667;SDS011;64266;48.798;44.756;2023-07-08T03:04:21;13.80;;;5.93;;
75667;SDS011;64266;48.798;44.756;2023-07-08T03:09:24;17.27;;;5.53;;
75667;SDS011;64266;48.798;44.756;2023-07-08T03:14:27;12.75;;;4.55;;
75667;SDS011;64266;48.798;44.756;2023-07-08T03:19:30;11.30;;;6.07;;
75667;SDS011;64266;48.798;44.756;2023-07-08T03:24:35;16.40;;;7.45;;
75667;SDS011;64266;48.798;44.756;2023-07-08T03:29:39;20.55;;;9.95;;
75667;SDS011;64266;48.798;44.756;2023-07-08T03:34:42;19.65;;;9.82;;
75667;SDS011;64266;48.798;44.756;2023-07-08T03:39:45;17.58;;;7.30;;
75667;SDS011;64266;48.798;44.756;2023-07-08T03:44:48;18.23;;;10.15;;
75667;SDS011;64266;48.798;44.756;2023-07-08T03:49:53;18.67;;;8.60;;
75667;SDS011;64266;48.798;44.756;2023-07-08T03:54:55;15.45;;;6.97;;
75667;SDS011;64266;48.798;44.756;2023-07-08T03:59:59;20.92;;;9.10;;
75667;SDS011;64266;48.798;44.756;2023-07-08T04:05:02;15.77;;;8.40;;
75667;SDS011;64266;48.798;44.756;2023-07-08T04:10:06;17.45;;;7.53;;
75667;SDS011;64266;48.798;44.756;2023-07-08T04:15:10;12.70;;;6.43;;
75667;SDS011;64266;48.798;44.756;2023-07-08T04:20:15;12.88;;;6.82;;
75667;SDS011;64266;48.798;44.756;2023-07-08T04:25:21;11.95;;;5.45;;
75667;SDS011;64266;48.798;44.756;2023-07-08T04:30:30;13.50;;;4.72;;
75667;SDS011;64266;48.798;44.756;2023-07-08T04:35:32;14.65;;;5.40;;
75667;SDS011;64266;48.798;44.756;2023-07-08T04:40:36;17.00;;;7.10;;
75667;SDS011;64266;48.798;44.756;2023-07-08T04:45:47;9.98;;;6.22;;
75667;SDS011;64266;48.798;44.756;2023-07-08T04:55:58;14.60;;;7.35;;
75667;SDS011;64266;48.798;44.756;2023-07-08T05:01:02;24.35;;;8.80;;
75667;SDS011;64266;48.798;44.756;2023-07-08T05:06:04;13.73;;;7.20;;
75667;SDS011;64266;48.798;44.756;2023-07-08T05:11:07;13.98;;;6.13;;
75667;SDS011;64266;48.798;44.756;2023-07-08T05:16:10;13.70;;;5.10;;
75667;SDS011;64266;48.798;44.756;2023-07-08T05:21:13;9.52;;;4.65;;
75667;SDS011;64266;48.798;44.756;2023-07-08T05:26:17;9.05;;;3.97;;
75667;SDS011;64266;48.798;44.756;2023-07-08T05:36:27;6.63;;;3.88;;
75667;SDS011;64266;48.798;44.756;2023-07-08T05:41:31;11.30;;;4.35;;
75667;SDS011;64266;48.798;44.756;2023-07-08T05:46:33;9.18;;;4.07;;
75667;SDS011;64266;48.798;44.756;2023-07-08T05:51:36;17.95;;;5.43;;
75667;SDS011;64266;48.798;44.756;2023-07-08T05:56:40;11.50;;;5.07;;
75667;SDS011;64266;48.798;44.756;2023-07-08T06:01:43;17.23;;;6.38;;
75667;SDS011;64266;48.798;44.756;2023-07-08T06:06:47;23.08;;;5.03;;
75667;SDS011;64266;48.798;44.756;2023-07-08T06:11:50;16.55;;;4.90;;
75667;SDS011;64266;48.798;44.756;2023-07-08T06:16:53;16.80;;;4.65;;
75667;SDS011;64266;48.798;44.756;2023-07-08T06:21:57;17.75;;;5.13;;
75667;SDS011;64266;48.798;44.756;2023-07-08T06:27:20;13.75;;;4.70;;
75667;SDS011;64266;48.798;44.756;2023-07-08T06:32:22;16.00;;;4.32;;
75667;SDS011;64266;48.798;44.756;2023-07-08T06:37:25;10.13;;;3.97;;
75667;SDS011;64266;48.798;44.756;2023-07-08T06:42:27;10.52;;;3.45;;
75667;SDS011;64266;48.798;44.756;2023-07-08T06:47:39;11.75;;;3.80;;
75667;SDS011;64266;48.798;44.756;2023-07-08T06:52:42;12.32;;;4.35;;
75667;SDS011;64266;48.798;44.756;2023-07-08T06:57:44;14.40;;;6.47;;
75667;SDS011;64266;48.798;44.756;2023-07-08T07:02:47;13.32;;;7.03;;
75667;SDS011;64266;48.798;44.756;2023-07-08T07:07:49;13.13;;;5.97;;
75667;SDS011;64266;48.798;44.756;2023-07-08T07:12:53;12.25;;;5.25;;
75667;SDS011;64266;48.798;44.756;2023-07-08T07:17:58;13.13;;;5.07;;
75667;SDS011;64266;48.798;44.756;2023-07-08T07:23:01;16.80;;;8.40;;
75667;SDS011;64266;48.798;44.756;2023-07-08T07:28:03;13.20;;;6.15;;
75667;SDS011;64266;48.798;44.756;2023-07-08T07:33:08;11.75;;;7.03;;
75667;SDS011;64266;48.798;44.756;2023-07-08T07:38:10;11.70;;;5.03;;
75667;SDS011;64266;48.798;44.756;2023-07-08T07:43:14;17.58;;;8.82;;
75667;SDS011;64266;48.798;44.756;2023-07-08T07:48:16;13.80;;;5.50;;
75667;SDS011;64266;48.798;44.756;2023-07-08T07:53:18;11.40;;;7.03;;
75667;SDS011;64266;48.798;44.756;2023-07-08T07:58:24;11.70;;;5.40;;
75667;SDS011;64266;48.798;44.756;2023-07-08T08:03:26;11.60;;;5.57;;
75667;SDS011;64266;48.798;44.756;2023-07-08T08:13:32;14.32;;;5.25;;
75667;SDS011;64266;48.798;44.756;2023-07-08T08:18:35;8.27;;;5.88;;
75667;SDS011;64266;48.798;44.756;2023-07-08T08:23:40;10.13;;;6.25;;
75667;SDS011;64266;48.798;44.756;2023-07-08T08:28:43;14.80;;;5.97;;
75667;SDS011;64266;48.798;44.756;2023-07-08T08:33:46;9.82;;;6.40;;
75667;SDS011;64266;48.798;44.756;2023-07-08T08:38:49;9.85;;;5.55;;
75667;SDS011;64266;48.798;44.756;2023-07-08T08:43:51;16.85;;;5.72;;
75667;SDS011;64266;48.798;44.756;2023-07-08T08:49:02;8.38;;;4.93;;
75667;SDS011;64266;48.798;44.756;2023-07-08T08:54:19;9.77;;;4.18;;
75667;SDS011;64266;48.798;44.756;2023-07-08T09:04:44;9.13;;;3.00;;
75667;SDS011;64266;48.798;44.756;2023-07-08T09:09:57;8.23;;;3.17;;
75667;SDS011;64266;48.798;44.756;2023-07-08T09:15:11;9.23;;;3.47;;
75667;SDS011;64266;48.798;44.756;2023-07-08T09:20:23;8.20;;;3.28;;
75667;SDS011;64266;48.798;44.756;2023-07-08T09:25:39;9.43;;;3.60;;
75667;SDS011;64266;48.798;44.756;2023-07-08T09:30:48;9.98;;;3.70;;
75667;SDS011;64266;48.798;44.756;2023-07-08T09:35:57;6.78;;;3.80;;
75667;SDS011;64266;48.798;44.756;2023-07-08T09:41:00;6.63;;;3.60;;
75667;SDS011;64266;48.798;44.756;2023-07-08T09:46:04;15.48;;;4.03;;
75667;SDS011;64266;48.798;44.756;2023-07-08T09:51:07;6.50;;;3.47;;
75667;SDS011;64266;48.798;44.756;2023-07-08T09:56:10;8.50;;;3.10;;
75667;SDS011;64266;48.798;44.756;2023-07-08T10:01:24;7.13;;;2.75;;
75667;SDS011;64266;48.798;44.756;2023-07-08T10:06:31;11.88;;;3.15;;
75667;SDS011;64266;48.798;44.756;2023-07-08T10:11:37;7.90;;;3.08;;
75667;SDS011;64266;48.798;44.756;2023-07-08T10:16:46;7.43;;;2.88;;
75667;SDS011;64266;48.798;44.756;2023-07-08T10:27:24;9.43;;;4.18;;
75667;SDS011;64266;48.798;44.756;2023-07-08T10:54:38;7.70;;;3.13;;
75667;SDS011;64266;48.798;44.756;2023-07-08T11:10:16;15.82;;;3.70;;
75667;SDS011;64266;48.798;44.756;2023-07-08T11:15:25;14.70;;;3.53;;
75667;SDS011;64266;48.798;44.756;2023-07-08T11:25:48;15.63;;;3.83;;
75667;SDS011;64266;48.798;44.756;2023-07-08T11:30:53;13.05;;;3.28;;
75667;SDS011;64266;48.798;44.756;2023-07-08T11:35:57;14.52;;;3.58;;
75667;SDS011;64266;48.798;44.756;2023-07-08T11:41:10;8.65;;;2.78;;
75667;SDS011;64266;48.798;44.756;2023-07-08T11:46:20;15.60;;;3.35;;
75667;SDS011;64266;48.798;44.756;2023-07-08T11:51:29;13.02;;;2.90;;
75667;SDS011;64266;48.798;44.756;2023-07-08T12:02:12;9.48;;;2.60;;
75667;SDS011;64266;48.798;44.756;2023-07-08T12:07:19;11.75;;;3.05;;
75667;SDS011;64266;48.798;44.756;2023-07-08T12:12:34;13.90;;;3.13;;
75667;SDS011;64266;48.798;44.756;2023-07-08T12:17:39;13.15;;;3.60;;
75667;SDS011;64266;48.798;44.756;2023-07-08T12:22:44;11.23;;;3.90;;
75667;SDS011;64266;48.798;44.756;2023-07-08T12:27:46;11.73;;;4.18;;
75667;SDS011;64266;48.798;44.756;2023-07-08T12:32:49;10.27;;;3.80;;
75667;SDS011;64266;48.798;44.756;2023-07-08T12:37:52;10.65;;;3.50;;
75667;SDS011;64266;48.798;44.756;2023-07-08T12:42:58;13.00;;;3.78;;
75667;SDS011;64266;48.798;44.756;2023-07-08T12:48:03;13.45;;;4.07;;
75667;SDS011;64266;48.798;44.756;2023-07-08T12:53:07;7.72;;;3.60;;
75667;SDS011;64266;48.798;44.756;2023-07-08T12:58:22;9.05;;;3.65;;
75667;SDS011;64266;48.798;44.756;2023-07-08T13:03:34;13.40;;;3.75;;
75667;SDS011;64266;48.798;44.756;2023-07-08T13:08:43;12.90;;;4.00;;
75667;SDS011;64266;48.798;44.756;2023-07-08T13:13:48;13.15;;;3.92;;
75667;SDS011;64266;48.798;44.756;2023-07-08T13:18:56;12.35;;;3.40;;
75667;SDS011;64266;48.798;44.756;2023-07-08T13:23:59;25.48;;;3.38;;
75667;SDS011;64266;48.798;44.756;2023-07-08T13:29:06;31.95;;;3.47;;
75667;SDS011;64266;48.798;44.756;2023-07-08T13:34:18;10.82;;;2.80;;
75667;SDS011;64266;48.798;44.756;2023-07-08T13:39:26;14.80;;;2.97;;
75667;SDS011;64266;48.798;44.756;2023-07-08T13:44:31;8.75;;;3.20;;
75667;SDS011;64266;48.798;44.756;2023-07-08T13:49:39;10.70;;;3.15;;
75667;SDS011;64266;48.798;44.756;2023-07-08T13:54:54;12.35;;;3.03;;
75667;SDS011;64266;48.798;44.756;2023-07-08T14:00:07;10.18;;;2.80;;
75667;SDS011;64266;48.798;44.756;2023-07-08T14:05:16;10.85;;;2.75;;
75667;SDS011;64266;48.798;44.756;2023-07-08T14:10:23;14.95;;;3.92;;
75667;SDS011;64266;48.798;44.756;2023-07-08T14:15:26;125.20;;;10.45;;
75667;SDS011;64266;48.798;44.756;2023-07-08T14:20:30;193.18;;;12.65;;
75667;SDS011;64266;48.798;44.756;2023-07-08T14:25:32;67.82;;;5.65;;
75667;SDS011;64266;48.798;44.756;2023-07-08T14:30:35;15.10;;;2.40;;
75667;SDS011;64266;48.798;44.756;2023-07-08T14:35:46;14.05;;;2.60;;
75667;SDS011;64266;48.798;44.756;2023-07-08T14:40:50;10.40;;;2.25;;
75667;SDS011;64266;48.798;44.756;2023-07-08T14:45:57;10.32;;;2.33;;
75667;SDS011;64266;48.798;44.756;2023-07-08T14:51:03;6.00;;;2.50;;
75667;SDS011;64266;48.798;44.756;2023-07-08T14:56:08;10.52;;;2.28;;
75667;SDS011;64266;48.798;44.756;2023-07-08T15:01:20;10.75;;;2.60;;
75667;SDS011;64266;48.798;44.756;2023-07-08T15:06:24;8.75;;;2.80;;
75667;SDS011;64266;48.798;44.756;2023-07-08T15:11:28;9.43;;;2.88;;
75667;SDS011;64266;48.798;44.756;2023-07-08T15:16:31;7.18;;;2.33;;
75667;SDS011;64266;48.798;44.756;2023-07-08T15:21:34;8.60;;;2.42;;
75667;SDS011;64266;48.798;44.756;2023-07-08T15:26:44;12.15;;;2.60;;
75667;SDS011;64266;48.798;44.756;2023-07-08T15:31:49;8.30;;;2.70;;
75667;SDS011;64266;48.798;44.756;2023-07-08T15:36:52;10.82;;;2.70;;
75667;SDS011;64266;48.798;44.756;2023-07-08T15:41:55;14.85;;;2.65;;
75667;SDS011;64266;48.798;44.756;2023-07-08T15:46:58;15.98;;;3.22;;
75667;SDS011;64266;48.798;44.756;2023-07-08T15:52:03;18.33;;;3.08;;
75667;SDS011;64266;48.798;44.756;2023-07-08T15:57:07;13.77;;;2.80;;
75667;SDS011;64266;48.798;44.756;2023-07-08T16:02:23;19.65;;;3.22;;
75667;SDS011;64266;48.798;44.756;2023-07-08T16:07:29;13.50;;;2.90;;
75667;SDS011;64266;48.798;44.756;2023-07-08T16:12:33;21.73;;;3.17;;
75667;SDS011;64266;48.798;44.756;2023-07-08T16:17:37;13.10;;;2.67;;
75667;SDS011;64266;48.798;44.756;2023-07-08T16:22:40;11.45;;;2.40;;
75667;SDS011;64266;48.798;44.756;2023-07-08T16:27:44;17.67;;;3.30;;
75667;SDS011;64266;48.798;44.756;2023-07-08T16:32:49;18.42;;;2.90;;
75667;SDS011;64266;48.798;44.756;2023-07-08T16:37:53;25.30;;;3.70;;
75667;SDS011;64266;48.798;44.756;2023-07-08T16:42:57;15.23;;;3.30;;
75667;SDS011;64266;48.798;44.756;2023-07-08T16:48:00;17.15;;;3.80;;
75667;SDS011;64266;48.798;44.756;2023-07-08T16:53:07;31.35;;;4.43;;
75667;SDS011;64266;48.798;44.756;2023-07-08T16:58:12;24.40;;;3.67;;
75667;SDS011;64266;48.798;44.756;2023-07-08T17:03:16;15.40;;;2.95;;
75667;SDS011;64266;48.798;44.756;2023-07-08T17:08:20;40.03;;;5.05;;
75667;SDS011;64266;48.798;44.756;2023-07-08T17:13:26;19.27;;;3.00;;
75667;SDS011;64266;48.798;44.756;2023-07-08T17:18:29;10.27;;;2.38;;
75667;SDS011;64266;48.798;44.756;2023-07-08T17:23:32;11.98;;;2.83;;
75667;SDS011;64266;48.798;44.756;2023-07-08T17:28:35;18.40;;;2.60;;
75667;SDS011;64266;48.798;44.756;2023-07-08T17:33:37;16.35;;;3.08;;
75667;SDS011;64266;48.798;44.756;2023-07-08T17:38:46;9.02;;;2.30;;
75667;SDS011;64266;48.798;44.756;2023-07-08T17:43:51;11.68;;;2.30;;
75667;SDS011;64266;48.798;44.756;2023-07-08T17:48:55;8.10;;;2.42;;
75667;SDS011;64266;48.798;44.756;2023-07-08T17:54:00;10.02;;;3.08;;
75667;SDS011;64266;48.798;44.756;2023-07-08T17:59:03;7.53;;;2.50;;
75667;SDS011;64266;48.798;44.756;2023-07-08T18:04:07;9.68;;;2.90;;
75667;SDS011;64266;48.798;44.756;2023-07-08T18:09:11;7.75;;;2.22;;
75667;SDS011;64266;48.798;44.756;2023-07-08T18:14:14;13.10;;;2.70;;
75667;SDS011;64266;48.798;44.756;2023-07-08T18:19:18;14.05;;;2.45;;
75667;SDS011;64266;48.798;44.756;2023-07-08T18:24:21;9.05;;;2.00;;
75667;SDS011;64266;48.798;44.756;2023-07-08T18:29:24;7.93;;;2.30;;
75667;SDS011;64266;48.798;44.756;2023-07-08T18:34:27;10.43;;;2.10;;
75667;SDS011;64266;48.798;44.756;2023-07-08T18:39:29;12.30;;;2.35;;
75667;SDS011;64266;48.798;44.756;2023-07-08T18:44:31;9.77;;;2.17;;
75667;SDS011;64266;48.798;44.756;2023-07-08T18:49:37;9.23;;;2.38;;
75667;SDS011;64266;48.798;44.756;2023-07-08T18:54:40;9.45;;;2.58;;
75667;SDS011;64266;48.798;44.756;2023-07-08T18:59:43;12.63;;;2.85;;
75667;SDS011;64266;48.798;44.756;2023-07-08T19:04:45;8.32;;;2.20;;
75667;SDS011;64266;48.798;44.756;2023-07-08T19:09:48;8.63;;;2.17;;
75667;SDS011;64266;48.798;44.756;2023-07-08T19:14:51;11.35;;;2.47;;
75667;SDS011;64266;48.798;44.756;2023-07-08T19:19:56;9.00;;;2.28;;
75667;SDS011;64266;48.798;44.756;2023-07-08T19:24:59;18.17;;;7.38;;
75667;SDS011;64266;48.798;44.756;2023-07-08T19:30:04;8.05;;;2.47;;
75667;SDS011;64266;48.798;44.756;2023-07-08T19:35:18;7.88;;;2.22;;
75667;SDS011;64266;48.798;44.756;2023-07-08T19:40:24;8.93;;;2.35;;
75667;SDS011;64266;48.798;44.756;2023-07-08T19:45:28;6.80;;;2.35;;
75667;SDS011;64266;48.798;44.756;2023-07-08T19:50:32;10.13;;;2.25;;
75667;SDS011;64266;48.798;44.756;2023-07-08T19:55:35;9.50;;;2.30;;
75667;SDS011;64266;48.798;44.756;2023-07-08T20:00:42;5.63;;;2.40;;
75667;SDS011;64266;48.798;44.756;2023-07-08T20:05:49;8.23;;;2.45;;
75667;SDS011;64266;48.798;44.756;2023-07-08T20:10:52;7.90;;;2.65;;
75667;SDS011;64266;48.798;44.756;2023-07-08T20:15:57;8.38;;;2.38;;
75667;SDS011;64266;48.798;44.756;2023-07-08T20:21:02;8.35;;;2.90;;
75667;SDS011;64266;48.798;44.756;2023-07-08T20:26:05;10.02;;;2.72;;
75667;SDS011;64266;48.798;44.756;2023-07-08T20:31:27;11.02;;;2.63;;
75667;SDS011;64266;48.798;44.756;2023-07-08T20:36:31;6.03;;;2.30;;
75667;SDS011;64266;48.798;44.756;2023-07-08T20:41:33;9.38;;;2.85;;
75667;SDS011;64266;48.798;44.756;2023-07-08T20:46:36;11.05;;;2.80;;
75667;SDS011;64266;48.798;44.756;2023-07-08T20:51:38;7.32;;;2.80;;
75667;SDS011;64266;48.798;44.756;2023-07-08T20:56:41;9.20;;;2.65;;
75667;SDS011;64266;48.798;44.756;2023-07-08T21:01:44;12.35;;;2.83;;
75667;SDS011;64266;48.798;44.756;2023-07-08T21:06:47;10.40;;;2.90;;
75667;SDS011;64266;48.798;44.756;2023-07-08T21:11:50;14.60;;;3.00;;
75667;SDS011;64266;48.798;44.756;2023-07-08T21:16:54;12.68;;;2.97;;
75667;SDS011;64266;48.798;44.756;2023-07-08T21:37:05;14.18;;;3.55;;
75667;SDS011;64266;48.798;44.756;2023-07-08T21:42:09;16.02;;;3.63;;
75667;SDS011;64266;48.798;44.756;2023-07-08T21:47:13;20.52;;;3.63;;
75667;SDS011;64266;48.798;44.756;2023-07-08T21:52:15;15.80;;;4.07;;
75667;SDS011;64266;48.798;44.756;2023-07-08T21:57:18;14.50;;;4.18;;
75667;SDS011;64266;48.798;44.756;2023-07-08T22:02:20;12.32;;;4.38;;
75667;SDS011;64266;48.798;44.756;2023-07-08T22:07:23;11.27;;;3.67;;
75667;SDS011;64266;48.798;44.756;2023-07-08T22:12:26;16.02;;;3.63;;
75667;SDS011;64266;48.798;44.756;2023-07-08T22:17:30;13.23;;;4.00;;
75667;SDS011;64266;48.798;44.756;2023-07-08T22:22:34;13.52;;;3.90;;
75667;SDS011;64266;48.798;44.756;2023-07-08T22:27:36;18.15;;;4.30;;
75667;SDS011;64266;48.798;44.756;2023-07-08T22:32:39;13.68;;;4.22;;
75667;SDS011;64266;48.798;44.756;2023-07-08T22:37:43;14.68;;;4.20;;
75667;SDS011;64266;48.798;44.756;2023-07-08T22:42:46;17.63;;;4.18;;
75667;SDS011;64266;48.798;44.756;2023-07-08T22:47:50;18.50;;;4.40;;
75667;SDS011;64266;48.798;44.756;2023-07-08T22:52:53;21.85;;;4.68;;
75667;SDS011;64266;48.798;44.756;2023-07-08T22:58:00;22.63;;;5.18;;
75667;SDS011;64266;48.798;44.756;2023-07-08T23:03:03;20.00;;;4.57;;
75667;SDS011;64266;48.798;44.756;2023-07-08T23:08:13;20.05;;;5.10;;
75667;SDS011;64266;48.798;44.756;2023-07-08T23:13:19;18.90;;;5.03;;
75667;SDS011;64266;48.798;44.756;2023-07-08T23:18:38;14.45;;;4.05;;
75667;SDS011;64266;48.798;44.756;2023-07-08T23:23:41;14.63;;;4.35;;
75667;SDS011;64266;48.798;44.756;2023-07-08T23:28:45;22.60;;;4.43;;
75667;SDS011;64266;48.798;44.756;2023-07-08T23:33:50;13.35;;;4.35;;
75667;SDS011;64266;48.798;44.756;2023-07-08T23:38:53;12.88;;;4.13;;
75667;SDS011;64266;48.798;44.756;2023-07-08T23:43:55;14.00;;;4.38;;
75667;SDS011;64266;48.798;44.756;2023-07-08T23:48:58;11.93;;;3.88;;
75667;SDS011;64266;48.798;44.756;2023-07-08T23:59:27;14.23;;;4.18;;
